Time;durP1;ratioP1;P1;durP2;ratioP2;P2;SDS_P1;SDS_P2;PMS_P1;PMS_P2;Temp;Humidity;BMP_temperature;BMP_pressure;BME280_temperature;BME280_humidity;BME280_pressure;Samples;Min_cycle;Max_cycle;Signal;HPM_P1;HPM_P2
2021/12/19 00:02:13;;;;;;;15.05;6.72;;;9.10;69.20;;;;;;6113399;23;20010;-53
2021/12/19 00:09:59;;;;;;;11.50;6.40;;;9.20;68.90;;;;;;6122303;23;20465;-53
2021/12/19 00:12:25;;;;;;;13.93;7.90;;;9.20;68.80;;;;;;6114777;23;20009;-55
2021/12/19 00:14:51;;;;;;;12.88;7.15;;;9.20;68.60;;;;;;6112772;23;20009;-52
2021/12/19 00:17:17;;;;;;;14.35;8.15;;;9.20;68.60;;;;;;6111007;23;20236;-52
2021/12/19 00:19:43;;;;;;;15.57;8.93;;;9.20;68.40;;;;;;6112601;23;20029;-53
2021/12/19 00:22:10;;;;;;;21.55;10.65;;;9.20;68.30;;;;;;6114898;23;20009;-55
2021/12/19 00:24:36;;;;;;;23.73;12.77;;;9.20;68.30;;;;;;6114876;23;20014;-51
2021/12/19 00:27:03;;;;;;;23.85;12.52;;;9.20;68.20;;;;;;6115517;23;20002;-49
2021/12/19 00:29:29;;;;;;;25.02;13.70;;;9.20;68.20;;;;;;6114378;23;20412;-51
2021/12/19 00:31:55;;;;;;;23.52;13.18;;;9.20;68.10;;;;;;6111168;23;20005;-51
2021/12/19 00:34:22;;;;;;;25.23;12.85;;;9.20;68.10;;;;;;6115795;23;20002;-53
2021/12/19 00:36:48;;;;;;;23.55;12.65;;;9.20;68.20;;;;;;6113579;23;20002;-51
2021/12/19 00:39:14;;;;;;;24.33;12.57;;;9.20;68.30;;;;;;6114087;23;20018;-52
2021/12/19 00:41:41;;;;;;;22.70;12.73;;;9.20;68.30;;;;;;6113997;23;20005;-53
2021/12/19 00:44:11;;;;;;;26.00;13.20;;;9.20;68.30;;;;;;6115311;23;19998;-51
2021/12/19 00:46:47;;;;;;;27.80;14.43;;;9.20;68.30;;;;;;6111688;23;20006;-53
2021/12/19 00:49:15;;;;;;;26.15;14.40;;;9.20;68.20;;;;;;6123095;23;20010;-53
2021/12/19 00:51:41;;;;;;;24.40;13.20;;;9.20;68.20;;;;;;6115773;23;20010;-53
2021/12/19 00:54:09;;;;;;;25.35;13.85;;;9.20;68.10;;;;;;6114389;23;20006;-50
2021/12/19 00:56:40;;;;;;;30.17;14.60;;;9.20;68.00;;;;;;6114838;23;20296;-50
2021/12/19 00:59:07;;;;;;;30.27;16.00;;;9.20;68.00;;;;;;6126144;23;20431;-50
2021/12/19 01:01:35;;;;;;;28.58;14.90;;;9.20;68.00;;;;;;6137363;23;20014;-51
2021/12/19 01:04:02;;;;;;;31.23;15.55;;;9.20;68.00;;;;;;6116490;23;20002;-52
2021/12/19 01:06:29;;;;;;;29.98;15.25;;;9.20;68.00;;;;;;6116009;23;19994;-50
2021/12/19 01:08:55;;;;;;;33.67;16.55;;;9.20;68.00;;;;;;6112938;23;20001;-53
2021/12/19 01:11:22;;;;;;;37.72;17.30;;;9.20;68.00;;;;;;6115722;23;20013;-51
2021/12/19 01:13:48;;;;;;;33.15;17.10;;;9.20;68.80;;;;;;6114044;23;20010;-50
2021/12/19 01:16:15;;;;;;;32.13;17.83;;;9.20;68.10;;;;;;6115310;23;20721;-51
2021/12/19 01:18:42;;;;;;;34.47;18.10;;;9.20;68.10;;;;;;6112717;23;19998;-50
2021/12/19 01:21:09;;;;;;;37.63;19.38;;;9.20;68.20;;;;;;6116064;23;20021;-50
2021/12/19 01:23:37;;;;;;;37.03;18.45;;;9.10;68.20;;;;;;6116912;23;20005;-50
2021/12/19 01:26:03;;;;;;;35.75;18.10;;;9.20;68.30;;;;;;6115933;23;20014;-53
2021/12/19 01:28:29;;;;;;;38.75;19.25;;;9.10;68.20;;;;;;6114453;23;20272;-50
2021/12/19 01:30:56;;;;;;;41.92;20.77;;;9.10;68.30;;;;;;6114951;23;20002;-50
2021/12/19 01:33:22;;;;;;;37.97;18.58;;;9.10;68.40;;;;;;6115899;23;20312;-50
2021/12/19 01:35:48;;;;;;;41.88;20.60;;;9.10;68.50;;;;;;6116165;23;20005;-50
2021/12/19 01:38:14;;;;;;;42.25;21.30;;;9.10;68.60;;;;;;6114084;23;20010;-48
2021/12/19 01:40:41;;;;;;;41.28;20.92;;;9.10;68.70;;;;;;6089314;23;20435;-51
2021/12/19 01:43:07;;;;;;;46.65;22.75;;;9.10;68.80;;;;;;6116304;23;19994;-52
2021/12/19 01:45:39;;;;;;;43.20;22.70;;;9.10;68.90;;;;;;6116174;23;20010;-50
2021/12/19 01:48:11;;;;;;;45.95;22.58;;;9.10;68.90;;;;;;6120801;23;20427;-47
2021/12/19 01:50:39;;;;;;;46.78;23.25;;;9.10;68.90;;;;;;6123629;23;20431;-50
2021/12/19 01:53:08;;;;;;;48.95;23.63;;;9.10;68.90;;;;;;6116700;23;19994;-49
2021/12/19 01:55:35;;;;;;;52.42;25.25;;;9.20;69.00;;;;;;6115985;23;20002;-51
2021/12/19 01:58:01;;;;;;;56.45;26.10;;;9.20;69.10;;;;;;6113491;23;20419;-50
2021/12/19 02:00:34;;;;;;;63.50;28.08;;;9.20;69.10;;;;;;6115880;23;20009;-51
2021/12/19 02:03:03;;;;;;;59.70;27.70;;;9.20;69.20;;;;;;6115175;23;20009;-53
2021/12/19 02:05:29;;;;;;;55.50;27.65;;;9.20;69.20;;;;;;6115155;23;20335;-53
2021/12/19 02:07:58;;;;;;;65.80;29.15;;;9.20;69.20;;;;;;6111969;23;20009;-52
2021/12/19 02:10:29;;;;;;;64.18;28.55;;;9.20;69.30;;;;;;6115517;23;20017;-54
2021/12/19 02:12:58;;;;;;;60.47;28.35;;;9.20;69.40;;;;;;6113534;23;20029;-54
2021/12/19 02:15:27;;;;;;;61.58;29.63;;;9.20;69.40;;;;;;6115904;23;20018;-53
2021/12/19 02:17:57;;;;;;;64.47;30.13;;;9.20;69.40;;;;;;6109443;23;20441;-53
2021/12/19 02:20:26;;;;;;;63.83;29.40;;;9.20;69.50;;;;;;6114811;23;20192;-54
2021/12/19 02:22:52;;;;;;;72.80;32.28;;;9.20;69.50;;;;;;6115697;23;20006;-55
2021/12/19 02:25:19;;;;;;;71.82;32.28;;;9.20;69.50;;;;;;6116298;23;20312;-52
2021/12/19 02:27:45;;;;;;;69.22;32.22;;;9.20;69.50;;;;;;6113704;23;20006;-53
2021/12/19 02:30:12;;;;;;;89.03;33.08;;;9.20;69.60;;;;;;6114055;23;20025;-53
2021/12/19 02:32:40;;;;;;;66.57;30.67;;;9.20;69.60;;;;;;6114917;23;20002;-53
2021/12/19 02:35:11;;;;;;;76.32;33.10;;;9.20;69.60;;;;;;6116579;23;20028;-55
2021/12/19 02:48:11;;;;;;;69.07;30.42;;;9.20;69.70;;;;;;6113674;23;20021;-52
2021/12/19 02:50:46;;;;;;;77.28;32.50;;;9.20;69.80;;;;;;6116937;23;20374;-52
2021/12/19 02:53:14;;;;;;;73.20;31.80;;;9.20;69.80;;;;;;6126547;23;20009;-51
2021/12/19 02:55:42;;;;;;;77.20;31.80;;;9.20;69.90;;;;;;6116170;23;20363;-53
2021/12/19 02:58:08;;;;;;;81.28;33.95;;;9.20;69.90;;;;;;6110642;23;20431;-53
2021/12/19 03:00:34;;;;;;;81.43;33.38;;;9.20;69.90;;;;;;6137441;23;20489;-52
2021/12/19 03:03:00;;;;;;;83.60;35.03;;;9.30;70.00;;;;;;6112920;23;20002;-53
2021/12/19 03:05:27;;;;;;;86.80;34.78;;;9.30;70.00;;;;;;6114781;23;20037;-52
2021/12/19 03:07:55;;;;;;;79.65;34.10;;;9.20;70.00;;;;;;6115066;23;20352;-53
2021/12/19 03:11:13;;;;;;;83.50;35.83;;;9.30;70.00;;;;;;6115458;23;20005;-54
2021/12/19 03:18:41;;;;;;;90.10;35.88;;;9.30;69.90;;;;;;6123247;23;20016;-53
2021/12/19 03:21:12;;;;;;;120.55;36.13;;;9.30;69.90;;;;;;6113015;23;20013;-53
2021/12/19 03:23:38;;;;;;;91.85;36.05;;;9.30;69.90;;;;;;6114541;23;20173;-52
2021/12/19 03:26:05;;;;;;;83.32;34.17;;;9.30;70.00;;;;;;6114787;23;20021;-52
2021/12/19 03:28:31;;;;;;;82.80;33.28;;;9.20;70.00;;;;;;6113865;23;19997;-50
2021/12/19 03:30:58;;;;;;;91.75;33.25;;;9.30;70.20;;;;;;6113882;23;19998;-54
2021/12/19 03:33:24;;;;;;;148.32;34.75;;;9.20;70.10;;;;;;6114078;23;19998;-54
2021/12/19 03:35:51;;;;;;;105.88;32.85;;;9.20;70.20;;;;;;6113069;23;20037;-51
2021/12/19 03:38:18;;;;;;;79.40;31.70;;;9.20;70.30;;;;;;6113830;23;20013;-53
2021/12/19 03:40:52;;;;;;;87.07;33.55;;;9.20;70.30;;;;;;6113927;23;20005;-52
2021/12/19 03:43:23;;;;;;;91.82;32.42;;;9.20;70.40;;;;;;6115363;23;20447;-53
2021/12/19 03:45:50;;;;;;;241.75;33.83;;;9.20;70.50;;;;;;6123663;23;20009;-52
2021/12/19 03:48:17;;;;;;;125.00;30.00;;;9.20;70.60;;;;;;6112584;23;19998;-49
2021/12/19 03:50:47;;;;;;;81.25;31.08;;;9.20;70.60;;;;;;6113746;23;20001;-52
2021/12/19 03:53:15;;;;;;;85.25;34.75;;;9.20;70.70;;;;;;6116051;23;19994;-54
2021/12/19 03:55:42;;;;;;;132.80;33.03;;;9.20;70.70;;;;;;6114024;23;20010;-54
2021/12/19 03:58:09;;;;;;;81.38;32.65;;;9.20;70.60;;;;;;6111532;23;20379;-51
2021/12/19 04:00:36;;;;;;;203.23;34.63;;;9.10;70.70;;;;;;6113716;23;20245;-54
2021/12/19 04:03:09;;;;;;;96.93;30.02;;;9.10;70.70;;;;;;6114598;23;19994;-53
2021/12/19 04:05:38;;;;;;;110.07;28.57;;;9.10;70.90;;;;;;6124911;23;20010;-50
2021/12/19 04:08:05;;;;;;;180.43;32.20;;;9.10;71.00;;;;;;6113365;23;20017;-53
2021/12/19 04:10:31;;;;;;;178.00;30.95;;;9.10;71.00;;;;;;6113073;23;20021;-54
2021/12/19 04:12:57;;;;;;;73.03;29.02;;;9.10;71.10;;;;;;6114318;23;20331;-53
2021/12/19 04:15:24;;;;;;;68.38;29.27;;;9.10;71.10;;;;;;6113672;23;20002;-53
2021/12/19 04:17:51;;;;;;;69.05;27.65;;;9.20;71.10;;;;;;6110370;23;20002;-53
2021/12/19 04:20:18;;;;;;;81.95;27.45;;;9.20;71.10;;;;;;6115740;23;20580;-53
2021/12/19 04:22:49;;;;;;;460.02;34.05;;;9.20;71.20;;;;;;6115611;23;20006;-54
2021/12/19 04:25:15;;;;;;;294.15;33.65;;;9.20;71.30;;;;;;6112343;23;20033;-56
2021/12/19 04:27:42;;;;;;;71.50;27.85;;;9.20;71.20;;;;;;6114908;23;20017;-48
2021/12/19 04:30:12;;;;;;;60.30;27.55;;;9.10;71.20;;;;;;6110575;23;20009;-54
2021/12/19 04:32:43;;;;;;;105.13;29.92;;;9.10;71.10;;;;;;6113648;23;20392;-52
2021/12/19 04:35:10;;;;;;;62.80;26.92;;;9.10;71.20;;;;;;6125242;23;20006;-54
2021/12/19 04:40:28;;;;;;;57.33;24.80;;;9.10;71.30;;;;;;6124100;23;20028;-51
2021/12/19 04:44:11;;;;;;;66.38;26.83;;;9.10;71.40;;;;;;6113113;23;20021;-53
2021/12/19 04:54:14;;;;;;;57.13;24.20;;;9.10;71.50;;;;;;6123624;23;20006;-54
2021/12/19 04:57:09;;;;;;;51.60;22.90;;;9.10;71.60;;;;;;6113036;23;20455;-51
2021/12/19 05:05:25;;;;;;;;;;;;;;;;;;;;;
2021/12/19 05:15:49;;;;;;;56.33;24.30;;;9.00;71.90;;;;;;6119710;23;20017;-57
2021/12/19 05:18:16;;;;;;;46.60;22.15;;;9.00;71.90;;;;;;6107606;23;20345;-55
2021/12/19 05:20:52;;;;;;;48.58;23.05;;;9.00;71.90;;;;;;6112526;23;19998;-52
2021/12/19 05:23:48;;;;;;;47.92;22.73;;;8.90;72.00;;;;;;6123209;23;20001;-57
2021/12/19 05:26:14;;;;;;;49.90;22.65;;;9.00;71.90;;;;;;6112692;23;20022;-52
2021/12/19 05:28:40;;;;;;;58.75;24.67;;;8.90;71.90;;;;;;6115038;23;20002;-52
2021/12/19 05:31:07;;;;;;;51.58;25.35;;;8.90;72.00;;;;;;6113701;23;20033;-54
2021/12/19 05:33:34;;;;;;;53.92;24.00;;;8.90;72.10;;;;;;6113298;23;20021;-53
2021/12/19 05:46:38;;;;;;;50.67;24.20;;;8.90;72.40;;;;;;6122711;23;20123;-56
2021/12/19 05:49:06;;;;;;;53.05;24.20;;;8.90;72.40;;;;;;6115967;23;20010;-53
2021/12/19 05:51:33;;;;;;;53.83;26.17;;;8.80;72.50;;;;;;6104822;23;20224;-55
2021/12/19 05:54:00;;;;;;;57.35;27.77;;;8.80;72.60;;;;;;6110098;23;20022;-52
2021/12/19 05:56:26;;;;;;;53.97;26.58;;;8.80;72.70;;;;;;6115295;23;20600;-52
2021/12/19 05:58:52;;;;;;;50.45;25.92;;;8.80;72.80;;;;;;6114511;23;19998;-55
2021/12/19 06:01:19;;;;;;;55.95;25.35;;;8.80;72.90;;;;;;6114486;23;20002;-55
2021/12/19 06:03:45;;;;;;;45.75;24.10;;;8.80;72.90;;;;;;6117200;23;20010;-53
2021/12/19 06:06:11;;;;;;;50.33;24.83;;;8.80;72.90;;;;;;6115244;23;20024;-54
2021/12/19 06:08:37;;;;;;;51.47;25.30;;;8.80;72.90;;;;;;6111783;23;19998;-53
2021/12/19 06:11:03;;;;;;;51.75;25.33;;;8.80;72.90;;;;;;6116807;23;20005;-54
2021/12/19 06:13:30;;;;;;;48.85;24.25;;;8.80;73.00;;;;;;6115677;23;20006;-54
2021/12/19 06:15:57;;;;;;;56.28;26.38;;;8.80;73.00;;;;;;6115203;23;20006;-48
2021/12/19 06:18:24;;;;;;;45.70;23.52;;;8.80;73.00;;;;;;6114318;23;20254;-52
2021/12/19 06:20:50;;;;;;;45.47;22.85;;;8.80;72.90;;;;;;6116372;23;20495;-52
2021/12/19 06:23:16;;;;;;;45.85;22.95;;;8.80;73.00;;;;;;6113728;23;19998;-56
2021/12/19 06:25:46;;;;;;;47.10;23.85;;;8.80;73.00;;;;;;6114723;23;20018;-51
2021/12/19 06:28:13;;;;;;;48.55;25.15;;;8.80;73.00;;;;;;6115306;23;20458;-53
2021/12/19 06:30:40;;;;;;;50.70;26.67;;;8.90;73.00;;;;;;6115041;23;20336;-54
2021/12/19 06:33:06;;;;;;;47.58;24.63;;;8.90;72.90;;;;;;6114608;23;20042;-49
2021/12/19 06:35:32;;;;;;;52.78;25.48;;;8.80;72.80;;;;;;6116475;23;20002;-50
2021/12/19 06:37:59;;;;;;;45.65;23.58;;;8.80;72.80;;;;;;6112819;23;20009;-53
2021/12/19 06:40:26;;;;;;;48.55;24.40;;;8.90;72.90;;;;;;6115987;23;19994;-54
2021/12/19 06:42:52;;;;;;;44.92;23.92;;;8.90;72.90;;;;;;6111902;23;20002;-53
2021/12/19 06:45:20;;;;;;;43.50;23.27;;;8.90;72.80;;;;;;6116013;23;20013;-55
2021/12/19 06:47:46;;;;;;;45.83;24.15;;;8.90;72.80;;;;;;6113016;23;20025;-56
2021/12/19 06:50:15;;;;;;;49.65;24.70;;;8.90;72.80;;;;;;6115945;23;20002;-51
2021/12/19 06:52:43;;;;;;;45.42;23.70;;;8.90;72.80;;;;;;6111147;23;19998;-52
2021/12/19 06:55:11;;;;;;;43.17;23.08;;;8.90;72.80;;;;;;6114459;23;20006;-54
2021/12/19 06:57:38;;;;;;;41.63;22.40;;;8.90;72.80;;;;;;6115277;23;19998;-51
2021/12/19 07:00:07;;;;;;;46.22;24.08;;;8.90;72.70;;;;;;6112904;23;20017;-53
2021/12/19 07:02:34;;;;;;;46.33;25.38;;;8.90;72.70;;;;;;6110886;23;20006;-56
2021/12/19 07:05:00;;;;;;;45.65;24.75;;;9.00;72.70;;;;;;6109446;23;20001;-54
2021/12/19 07:07:27;;;;;;;48.83;25.27;;;9.00;72.60;;;;;;6114489;23;20013;-54
2021/12/19 07:09:53;;;;;;;46.58;24.48;;;9.00;72.50;;;;;;6113140;23;20017;-53
2021/12/19 07:12:20;;;;;;;47.55;26.23;;;8.90;72.40;;;;;;6114790;23;20420;-53
2021/12/19 07:14:46;;;;;;;46.50;25.42;;;8.90;72.40;;;;;;6113985;23;20013;-54
2021/12/19 07:17:13;;;;;;;51.03;26.65;;;8.90;72.50;;;;;;6112134;23;20017;-54
2021/12/19 07:19:39;;;;;;;50.92;25.98;;;8.90;72.50;;;;;;6113938;23;20006;-50
2021/12/19 07:22:05;;;;;;;53.35;27.02;;;8.90;72.60;;;;;;6114502;23;20002;-55
2021/12/19 07:24:31;;;;;;;47.25;25.98;;;8.90;72.70;;;;;;6115270;23;20466;-52
2021/12/19 07:26:57;;;;;;;57.50;28.95;;;8.90;72.70;;;;;;6115184;23;19998;-55
2021/12/19 07:29:24;;;;;;;49.83;27.17;;;8.90;72.60;;;;;;6113421;23;20428;-52
2021/12/19 07:31:50;;;;;;;52.72;27.08;;;8.90;72.70;;;;;;6113223;23;20005;-51
2021/12/19 07:34:16;;;;;;;57.08;28.83;;;8.90;72.70;;;;;;6113862;23;20331;-52
2021/12/19 07:36:49;;;;;;;51.30;28.25;;;8.90;72.60;;;;;;6114970;23;20006;-53
2021/12/19 07:39:38;;;;;;;52.87;27.73;;;8.90;72.60;;;;;;6115014;23;20006;-56
2021/12/19 07:42:10;;;;;;;52.63;26.58;;;8.90;72.60;;;;;;6114521;23;20006;-52
2021/12/19 07:44:37;;;;;;;58.63;28.00;;;8.90;72.60;;;;;;6115594;23;20002;-52
2021/12/19 07:47:06;;;;;;;51.83;27.83;;;8.90;72.60;;;;;;6113080;23;20002;-56
2021/12/19 07:49:33;;;;;;;57.63;28.40;;;8.90;72.50;;;;;;6113025;23;20022;-52
2021/12/19 07:51:59;;;;;;;51.45;26.90;;;8.90;72.50;;;;;;6114903;23;20002;-52
2021/12/19 07:54:25;;;;;;;53.08;26.42;;;9.00;72.50;;;;;;6115627;23;20431;-57
2021/12/19 07:56:52;;;;;;;48.42;25.92;;;8.90;72.50;;;;;;6112315;23;20300;-53
2021/12/19 07:59:18;;;;;;;55.22;26.88;;;9.00;72.60;;;;;;6112304;23;20014;-52
2021/12/19 08:01:44;;;;;;;52.72;26.08;;;9.00;72.60;;;;;;6112943;23;20696;-51
2021/12/19 08:04:11;;;;;;;48.63;25.73;;;9.00;72.50;;;;;;6111257;23;20013;-51
2021/12/19 08:06:37;;;;;;;48.75;26.35;;;9.00;72.40;;;;;;6113395;23;20005;-53
2021/12/19 08:09:12;;;;;;;44.72;24.10;;;9.00;72.30;;;;;;6113870;23;20006;-50
2021/12/19 08:11:42;;;;;;;47.58;25.70;;;9.00;72.30;;;;;;6124290;23;20008;-53
2021/12/19 08:14:14;;;;;;;48.47;25.55;;;9.00;72.20;;;;;;6113863;23;20185;-52
2021/12/19 08:16:43;;;;;;;44.65;24.55;;;9.00;72.20;;;;;;6110045;23;20021;-53
2021/12/19 08:19:09;;;;;;;44.30;23.67;;;9.10;72.30;;;;;;6111269;23;20002;-54
2021/12/19 08:21:36;;;;;;;47.55;24.05;;;9.00;72.10;;;;;;6115380;23;20597;-51
2021/12/19 08:24:09;;;;;;;45.47;23.17;;;9.00;72.10;;;;;;6113822;23;20345;-54
2021/12/19 08:26:37;;;;;;;42.67;22.58;;;9.00;72.20;;;;;;6113518;23;20044;-54
2021/12/19 08:29:03;;;;;;;41.22;21.98;;;9.00;72.30;;;;;;6112067;23;20461;-54
2021/12/19 08:31:30;;;;;;;43.60;23.45;;;9.00;72.30;;;;;;6110621;23;20048;-54
2021/12/19 08:33:58;;;;;;;45.20;23.85;;;9.00;72.20;;;;;;6114822;23;20010;-54
2021/12/19 08:36:24;;;;;;;42.78;23.35;;;9.00;72.20;;;;;;6113856;23;20002;-55
2021/12/19 08:38:51;;;;;;;42.88;23.73;;;9.00;72.30;;;;;;6111358;23;20006;-57
2021/12/19 08:41:17;;;;;;;40.88;21.65;;;8.90;72.40;;;;;;6114223;23;20446;-54
2021/12/19 08:43:43;;;;;;;43.00;22.13;;;9.00;72.50;;;;;;6114576;23;20001;-53
2021/12/19 08:46:11;;;;;;;40.33;20.88;;;9.00;72.40;;;;;;6112046;23;20292;-57
2021/12/19 08:48:38;;;;;;;40.28;21.27;;;9.00;72.40;;;;;;6112871;23;20013;-53
2021/12/19 08:51:05;;;;;;;40.22;21.42;;;8.90;72.30;;;;;;6113383;23;20308;-50
2021/12/19 08:53:32;;;;;;;39.53;19.40;;;8.90;72.20;;;;;;6115602;23;20315;-53
2021/12/19 08:55:58;;;;;;;36.50;18.95;;;8.90;72.20;;;;;;6113087;23;20009;-55
2021/12/19 08:58:25;;;;;;;33.50;16.95;;;8.90;72.30;;;;;;6111340;23;20002;-56
2021/12/19 09:00:51;;;;;;;35.08;17.27;;;8.90;72.10;;;;;;6112847;23;20013;-52
2021/12/19 09:03:18;;;;;;;34.50;17.98;;;8.90;72.00;;;;;;6113451;23;20009;-52
2021/12/19 09:05:44;;;;;;;36.17;17.40;;;8.90;72.00;;;;;;6114390;23;20002;-52
2021/12/19 09:08:10;;;;;;;36.92;17.70;;;8.90;72.10;;;;;;6111370;23;20014;-54
2021/12/19 09:10:38;;;;;;;38.65;19.35;;;8.90;72.00;;;;;;6115046;23;20014;-56
2021/12/19 09:13:04;;;;;;;35.08;17.30;;;8.90;72.00;;;;;;6110763;23;20443;-54
2021/12/19 09:15:30;;;;;;;32.05;16.00;;;9.00;72.10;;;;;;6113144;23;20336;-54
2021/12/19 09:17:56;;;;;;;29.40;15.05;;;9.00;72.00;;;;;;6134845;23;20248;-53
2021/12/19 09:20:22;;;;;;;40.13;18.52;;;8.90;72.00;;;;;;6116662;23;20001;-54
2021/12/19 09:22:49;;;;;;;32.88;17.48;;;9.00;72.00;;;;;;6115185;23;20014;-56
2021/12/19 09:25:15;;;;;;;38.55;18.30;;;9.00;72.00;;;;;;6115741;23;20018;-55
2021/12/19 09:27:41;;;;;;;35.90;16.73;;;8.90;71.90;;;;;;6110877;23;20064;-54
2021/12/19 09:30:08;;;;;;;37.50;18.27;;;8.90;71.90;;;;;;6115390;23;20009;-57
2021/12/19 09:32:34;;;;;;;34.28;16.42;;;9.00;72.00;;;;;;6113075;23;20013;-57
2021/12/19 09:35:00;;;;;;;35.45;16.60;;;8.90;71.80;;;;;;6115272;23;20013;-53
2021/12/19 09:37:28;;;;;;;32.80;16.52;;;9.00;71.90;;;;;;6116180;23;20010;-53
2021/12/19 09:39:55;;;;;;;31.48;16.08;;;9.00;71.70;;;;;;6115326;23;20006;-53
2021/12/19 09:42:23;;;;;;;36.55;15.27;;;9.00;71.50;;;;;;6115567;23;20337;-53
2021/12/19 09:44:49;;;;;;;32.13;14.38;;;9.00;71.50;;;;;;6111498;23;20323;-54
2021/12/19 09:47:16;;;;;;;30.00;15.00;;;9.00;71.20;;;;;;6113213;23;20006;-57
2021/12/19 09:49:42;;;;;;;31.23;16.02;;;8.90;70.80;;;;;;6108151;23;20135;-54
2021/12/19 09:52:09;;;;;;;29.77;14.30;;;8.90;70.80;;;;;;6115766;23;20033;-53
2021/12/19 09:54:41;;;;;;;23.25;12.23;;;8.90;70.70;;;;;;6114962;23;20025;-55
2021/12/19 09:57:07;;;;;;;21.58;11.18;;;8.80;70.40;;;;;;6115599;23;20025;-57
2021/12/19 09:59:33;;;;;;;24.88;12.20;;;8.70;70.50;;;;;;6114220;23;20002;-56
2021/12/19 10:02:01;;;;;;;23.75;11.85;;;8.70;70.70;;;;;;6115135;23;20017;-53
2021/12/19 10:04:33;;;;;;;24.52;12.38;;;8.70;70.80;;;;;;6116006;23;20006;-55
2021/12/19 10:07:14;;;;;;;23.20;12.38;;;8.70;70.80;;;;;;6115023;23;20025;-52
2021/12/19 10:10:12;;;;;;;22.08;11.10;;;8.70;70.80;;;;;;6124614;23;19998;-56
2021/12/19 10:15:17;;;;;;;19.90;10.10;;;8.70;70.80;;;;;;6122699;23;20006;-56
2021/12/19 10:17:43;;;;;;;18.50;10.27;;;8.70;70.50;;;;;;6114129;23;20013;-53
2021/12/19 10:20:12;;;;;;;18.10;10.40;;;8.70;70.40;;;;;;6115791;23;20064;-54
2021/12/19 10:22:43;;;;;;;16.10;9.43;;;8.80;70.20;;;;;;6113217;23;20276;-54
2021/12/19 10:25:27;;;;;;;13.70;8.73;;;8.80;69.90;;;;;;6115097;23;20037;-54
2021/12/19 10:28:06;;;;;;;13.35;7.80;;;8.80;69.80;;;;;;6122844;23;20431;-51
2021/12/19 10:30:34;;;;;;;11.43;7.57;;;8.80;69.80;;;;;;6124106;23;20392;-54
2021/12/19 10:33:08;;;;;;;12.32;8.07;;;8.80;69.80;;;;;;6113752;23;20013;-53
2021/12/19 10:35:47;;;;;;;9.80;6.33;;;8.80;69.80;;;;;;6115886;23;20513;-56
2021/12/19 10:38:20;;;;;;;9.60;6.28;;;8.80;69.80;;;;;;6124852;23;19994;-54
2021/12/19 10:40:58;;;;;;;10.23;6.65;;;8.80;69.70;;;;;;6123975;23;19998;-55
2021/12/19 10:43:28;;;;;;;10.52;7.15;;;8.80;69.80;;;;;;6115499;23;20327;-54
2021/12/19 10:45:57;;;;;;;10.13;6.30;;;8.80;69.70;;;;;;6136091;23;20006;-54
2021/12/19 10:48:25;;;;;;;8.95;6.30;;;8.80;69.80;;;;;;6113913;23;20427;-56
2021/12/19 10:51:10;;;;;;;9.40;6.05;;;8.80;69.70;;;;;;6114436;23;20012;-57
2021/12/19 10:53:41;;;;;;;10.68;5.78;;;8.80;69.70;;;;;;6124674;23;20010;-55
2021/12/19 10:56:12;;;;;;;7.03;4.60;;;8.80;69.70;;;;;;6121892;23;20010;-56
2021/12/19 10:58:57;;;;;;;6.13;3.78;;;8.80;69.90;;;;;;6111144;23;20013;-54
2021/12/19 11:01:31;;;;;;;7.38;3.97;;;8.80;69.80;;;;;;6118076;23;20021;-55
2021/12/19 11:04:14;;;;;;;6.37;3.87;;;8.90;69.90;;;;;;6113460;23;20021;-56
2021/12/19 11:06:54;;;;;;;10.00;6.78;;;8.90;69.60;;;;;;6118191;23;20225;-54
2021/12/19 11:09:27;;;;;;;10.57;6.05;;;8.90;69.70;;;;;;6114722;23;20029;-51
2021/12/19 11:11:59;;;;;;;8.27;5.78;;;8.90;69.60;;;;;;6115242;23;20200;-54
2021/12/19 11:14:28;;;;;;;10.27;6.43;;;8.90;69.40;;;;;;6113252;23;20002;-56
2021/12/19 11:16:58;;;;;;;10.35;6.38;;;8.90;69.00;;;;;;6110465;23;20342;-55
2021/12/19 11:19:27;;;;;;;11.30;6.53;;;8.90;68.90;;;;;;6114411;23;20071;-53
2021/12/19 11:21:53;;;;;;;8.90;5.50;;;8.90;69.10;;;;;;6113667;23;20013;-52
2021/12/19 11:24:21;;;;;;;7.05;4.32;;;8.80;69.20;;;;;;6114103;23;20017;-54
2021/12/19 11:26:51;;;;;;;6.80;4.10;;;8.80;69.20;;;;;;6114290;23;20010;-54
2021/12/19 11:29:18;;;;;;;8.10;4.53;;;8.80;69.20;;;;;;6111427;23;20006;-57
2021/12/19 11:31:50;;;;;;;6.22;3.78;;;8.90;69.30;;;;;;6113287;23;20002;-55
2021/12/19 11:34:23;;;;;;;5.88;3.33;;;8.80;69.10;;;;;;6107351;23;20327;-56
2021/12/19 11:37:07;;;;;;;5.47;3.63;;;8.80;69.10;;;;;;6115217;23;20006;-56
2021/12/19 11:39:39;;;;;;;3.65;2.80;;;8.80;68.90;;;;;;6115003;23;19998;-55
2021/12/19 11:42:14;;;;;;;3.65;2.72;;;8.80;68.90;;;;;;6135033;23;20013;-54
2021/12/19 11:45:28;;;;;;;4.78;2.58;;;8.80;69.00;;;;;;6114326;23;20010;-56
2021/12/19 11:47:38;;;;;;;6.50;4.53;;;8.90;69.10;;;;;;6108016;23;20010;-52
2021/12/19 11:50:12;;;;;;;4.72;2.90;;;8.80;68.90;;;;;;6113048;23;20006;-51
2021/12/19 11:52:38;;;;;;;3.03;2.58;;;8.80;68.80;;;;;;6112976;23;20293;-53
2021/12/19 11:55:26;;;;;;;4.18;2.92;;;8.90;69.00;;;;;;6115334;23;20010;-57
2021/12/19 11:58:07;;;;;;;5.30;3.05;;;8.90;69.10;;;;;;6112699;23;20017;-56
2021/12/19 12:00:40;;;;;;;5.18;2.42;;;8.90;69.10;;;;;;6107239;23;20010;-56
2021/12/19 12:03:29;;;;;;;5.63;3.08;;;8.90;69.10;;;;;;6106833;23;20010;-55
2021/12/19 12:05:59;;;;;;;8.23;5.25;;;8.90;69.20;;;;;;6100407;23;20505;-53
2021/12/19 12:08:27;;;;;;;7.25;4.25;;;9.00;69.10;;;;;;6113126;23;19994;-55
2021/12/19 12:10:57;;;;;;;4.97;3.08;;;8.90;69.00;;;;;;6113740;23;19994;-54
2021/12/19 12:13:28;;;;;;;2.83;2.15;;;9.00;69.20;;;;;;6113493;23;20010;-53
2021/12/19 12:16:28;;;;;;;2.85;1.90;;;9.00;69.10;;;;;;6112197;23;20001;-55
2021/12/19 12:18:58;;;;;;;3.65;2.45;;;8.90;69.10;;;;;;6112088;23;20008;-54
2021/12/19 12:21:33;;;;;;;3.05;2.10;;;8.90;69.00;;;;;;6113601;23;20002;-55
2021/12/19 12:24:04;;;;;;;4.13;2.30;;;8.90;68.90;;;;;;6113810;23;20400;-55
2021/12/19 12:26:42;;;;;;;4.22;2.67;;;9.00;69.00;;;;;;6123627;23;20335;-57
2021/12/19 12:29:09;;;;;;;4.35;2.70;;;8.90;68.80;;;;;;6124215;23;20013;-56
2021/12/19 12:31:37;;;;;;;3.58;2.58;;;9.00;68.90;;;;;;6112889;23;20357;-55
2021/12/19 12:34:08;;;;;;;4.03;2.92;;;9.00;68.90;;;;;;6114072;23;20005;-53
2021/12/19 12:36:34;;;;;;;4.18;2.90;;;9.00;68.90;;;;;;6119313;23;20010;-53
2021/12/19 12:39:06;;;;;;;5.55;3.33;;;9.00;68.90;;;;;;6107904;23;20616;-56
2021/12/19 12:44:10;;;;;;;5.35;3.30;;;9.00;68.60;;;;;;6115727;23;20006;-54
2021/12/19 12:46:36;;;;;;;4.07;2.83;;;9.00;68.60;;;;;;6123254;23;20013;-54
2021/12/19 12:49:08;;;;;;;4.40;2.90;;;9.00;68.60;;;;;;6107615;23;20013;-53
2021/12/19 12:51:40;;;;;;;5.00;3.58;;;9.10;68.80;;;;;;6112462;23;20005;-54
2021/12/19 12:54:14;;;;;;;5.80;3.95;;;9.10;68.80;;;;;;6106030;23;20395;-56
2021/12/19 12:56:48;;;;;;;5.33;3.97;;;9.10;68.70;;;;;;6109744;23;20005;-56
2021/12/19 12:59:20;;;;;;;5.68;3.67;;;9.10;68.60;;;;;;6112182;23;20230;-55
2021/12/19 13:01:52;;;;;;;6.45;3.83;;;9.10;68.30;;;;;;6112371;23;19994;-54
2021/12/19 13:04:25;;;;;;;6.32;4.32;;;9.20;68.30;;;;;;6114670;23;20005;-55
2021/12/19 13:07:06;;;;;;;5.90;4.03;;;9.10;68.20;;;;;;6112294;23;20010;-54
2021/12/19 13:09:35;;;;;;;10.10;6.45;;;9.10;68.00;;;;;;6124426;23;20261;-55
2021/12/19 13:12:17;;;;;;;8.05;5.72;;;9.20;68.00;;;;;;6111477;23;20029;-55
2021/12/19 13:14:55;;;;;;;8.40;5.05;;;9.20;67.70;;;;;;6114523;23;20017;-57
2021/12/19 13:17:27;;;;;;;8.32;5.32;;;9.10;67.60;;;;;;6111838;23;20009;-56
2021/12/19 13:20:03;;;;;;;6.53;4.60;;;9.10;67.60;;;;;;6121949;23;20518;-53
2021/12/19 13:22:51;;;;;;;8.50;4.82;;;9.10;67.60;;;;;;6114556;23;20423;-54
2021/12/19 13:25:34;;;;;;;6.57;4.35;;;9.10;67.90;;;;;;6112382;23;20014;-56
2021/12/19 13:28:04;;;;;;;6.15;4.65;;;9.10;68.10;;;;;;6121279;23;20002;-55
2021/12/19 13:30:33;;;;;;;8.95;4.40;;;9.20;68.10;;;;;;6112703;23;20496;-57
2021/12/19 13:33:07;;;;;;;7.35;5.07;;;9.20;68.00;;;;;;6111451;23;19998;-55
2021/12/19 13:35:43;;;;;;;6.28;4.25;;;9.20;68.10;;;;;;6112823;23;20009;-56
2021/12/19 13:38:17;;;;;;;7.10;4.85;;;9.10;67.80;;;;;;6121083;23;20013;-56
2021/12/19 13:40:48;;;;;;;7.90;5.03;;;9.20;67.90;;;;;;6113703;23;20005;-57
2021/12/19 13:43:20;;;;;;;7.43;4.63;;;9.10;67.70;;;;;;6113277;23;20375;-55
2021/12/19 13:45:55;;;;;;;8.68;5.60;;;9.10;67.70;;;;;;6121399;23;20002;-57
2021/12/19 13:48:41;;;;;;;7.50;5.38;;;9.10;67.60;;;;;;6119242;23;20002;-57
2021/12/19 13:51:15;;;;;;;7.97;5.45;;;9.10;67.70;;;;;;6124069;23;20006;-55
2021/12/19 13:53:45;;;;;;;6.70;5.15;;;9.10;67.80;;;;;;6121962;23;20002;-54
2021/12/19 13:56:20;;;;;;;8.35;5.25;;;9.10;68.00;;;;;;6086847;23;20013;-53
2021/12/19 13:58:52;;;;;;;7.90;4.93;;;9.10;67.90;;;;;;6110369;23;20021;-54